sensor_id;sensor_type;location;lat;lon;timestamp;pressure;altitude;pressure_sealevel;temperature;humidity
55079;BME280;55187;49.496;6.010;2022-11-20T00:01:15;96953.66;;;4.46;100.00
55079;BME280;55187;49.496;6.010;2022-11-20T00:03:42;96941.22;;;4.48;100.00
55079;BME280;55187;49.496;6.010;2022-11-20T00:06:12;96949.72;;;4.50;100.00
55079;BME280;55187;49.496;6.010;2022-11-20T00:08:40;96945.13;;;4.44;100.00
55079;BME280;55187;49.496;6.010;2022-11-20T00:11:12;96946.75;;;4.53;100.00
55079;BME280;55187;49.496;6.010;2022-11-20T00:13:39;96939.75;;;4.53;100.00
55079;BME280;55187;49.496;6.010;2022-11-20T00:16:09;96947.09;;;4.50;100.00
55079;BME280;55187;49.496;6.010;2022-11-20T00:18:35;96945.00;;;4.53;100.00
55079;BME280;55187;49.496;6.010;2022-11-20T00:21:07;96945.13;;;4.52;100.00
55079;BME280;55187;49.496;6.010;2022-11-20T00:23:35;96948.09;;;4.57;100.00
55079;BME280;55187;49.496;6.010;2022-11-20T00:26:04;96947.75;;;4.52;100.00
55079;BME280;55187;49.496;6.010;2022-11-20T00:28:31;96946.28;;;4.57;100.00
55079;BME280;55187;49.496;6.010;2022-11-20T00:31:05;96942.03;;;4.56;100.00
55079;BME280;55187;49.496;6.010;2022-11-20T00:33:32;96943.50;;;4.59;100.00
55079;BME280;55187;49.496;6.010;2022-11-20T00:36:04;96942.84;;;4.57;100.00
55079;BME280;55187;49.496;6.010;2022-11-20T00:38:32;96938.25;;;4.59;100.00
55079;BME280;55187;49.496;6.010;2022-11-20T00:40:59;96932.34;;;4.57;100.00
55079;BME280;55187;49.496;6.010;2022-11-20T00:43:27;96933.00;;;4.59;100.00
55079;BME280;55187;49.496;6.010;2022-11-20T00:46:03;96937.44;;;4.58;100.00
55079;BME280;55187;49.496;6.010;2022-11-20T00:48:30;96938.09;;;4.60;100.00
55079;BME280;55187;49.496;6.010;2022-11-20T00:50:57;96946.13;;;4.59;100.00
55079;BME280;55187;49.496;6.010;2022-11-20T00:53:24;96946.78;;;4.61;100.00
55079;BME280;55187;49.496;6.010;2022-11-20T00:56:05;96951.03;;;4.54;100.00
55079;BME280;55187;49.496;6.010;2022-11-20T00:58:35;96945.13;;;4.60;100.00
55079;BME280;55187;49.496;6.010;2022-11-20T01:01:04;96950.06;;;4.63;100.00
55079;BME280;55187;49.496;6.010;2022-11-20T01:03:32;96944.16;;;4.53;100.00
55079;BME280;55187;49.496;6.010;2022-11-20T01:06:03;96943.16;;;4.62;100.00
55079;BME280;55187;49.496;6.010;2022-11-20T01:08:32;96949.41;;;4.61;100.00
55079;BME280;55187;49.496;6.010;2022-11-20T01:11:00;96949.56;;;4.51;100.00
55079;BME280;55187;49.496;6.010;2022-11-20T01:13:29;96943.34;;;4.60;100.00
55079;BME280;55187;49.496;6.010;2022-11-20T01:16:08;96943.66;;;4.66;100.00
55079;BME280;55187;49.496;6.010;2022-11-20T01:18:35;96942.66;;;4.67;100.00
55079;BME280;55187;49.496;6.010;2022-11-20T01:21:04;96939.88;;;4.68;100.00
55079;BME280;55187;49.496;6.010;2022-11-20T01:23:32;96940.69;;;4.69;100.00
55079;BME280;55187;49.496;6.010;2022-11-20T01:26:00;96937.09;;;4.70;100.00
55079;BME280;55187;49.496;6.010;2022-11-20T01:28:28;96938.06;;;4.69;100.00
55079;BME280;55187;49.496;6.010;2022-11-20T01:30:55;96932.88;;;4.60;100.00
55079;BME280;55187;49.496;6.010;2022-11-20T01:33:21;96945.28;;;4.67;100.00
55079;BME280;55187;49.496;6.010;2022-11-20T01:35:48;96949.88;;;4.65;100.00
55079;BME280;55187;49.496;6.010;2022-11-20T01:38:17;96946.78;;;4.61;100.00
55079;BME280;55187;49.496;6.010;2022-11-20T01:40:55;96946.78;;;4.61;100.00
55079;BME280;55187;49.496;6.010;2022-11-20T01:43:23;96947.59;;;4.61;100.00
55079;BME280;55187;49.496;6.010;2022-11-20T01:46:17;96942.00;;;4.65;100.00
55079;BME280;55187;49.496;6.010;2022-11-20T01:48:55;96930.06;;;4.54;100.00
55079;BME280;55187;49.496;6.010;2022-11-20T01:51:33;96938.41;;;4.57;100.00
55079;BME280;55187;49.496;6.010;2022-11-20T01:54:04;96948.75;;;4.59;100.00
55079;BME280;55187;49.496;6.010;2022-11-20T01:56:37;96947.44;;;4.55;100.00
55079;BME280;55187;49.496;6.010;2022-11-20T01:59:05;96946.28;;;4.57;100.00
55079;BME280;55187;49.496;6.010;2022-11-20T02:01:33;96947.59;;;4.53;100.00
55079;BME280;55187;49.496;6.010;2022-11-20T02:04:00;96944.16;;;4.53;100.00
55079;BME280;55187;49.496;6.010;2022-11-20T02:06:33;96944.16;;;4.45;100.00
55079;BME280;55187;49.496;6.010;2022-11-20T02:09:01;96946.09;;;4.51;100.00
55079;BME280;55187;49.496;6.010;2022-11-20T02:11:30;96942.69;;;4.50;100.00
55079;BME280;55187;49.496;6.010;2022-11-20T02:13:57;96947.94;;;4.42;100.00
55079;BME280;55187;49.496;6.010;2022-11-20T02:16:33;96946.78;;;4.45;100.00
55079;BME280;55187;49.496;6.010;2022-11-20T02:19:06;96950.88;;;4.47;100.00
55079;BME280;55187;49.496;6.010;2022-11-20T02:24:19;96934.34;;;4.47;100.00
55079;BME280;55187;49.496;6.010;2022-11-20T02:26:53;96937.47;;;4.42;100.00
55079;BME280;55187;49.496;6.010;2022-11-20T02:32:04;96936.78;;;4.48;100.00
55079;BME280;55187;49.496;6.010;2022-11-20T02:34:30;96925.50;;;4.48;100.00
55079;BME280;55187;49.496;6.010;2022-11-20T02:36:57;96927.94;;;4.49;100.00
55079;BME280;55187;49.496;6.010;2022-11-20T02:39:26;96934.16;;;4.48;100.00
55079;BME280;55187;49.496;6.010;2022-11-20T02:41:54;96926.63;;;4.45;100.00
55079;BME280;55187;49.496;6.010;2022-11-20T02:44:21;96923.22;;;4.45;100.00
55079;BME280;55187;49.496;6.010;2022-11-20T02:46:48;96921.41;;;4.45;100.00
55079;BME280;55187;49.496;6.010;2022-11-20T02:49:14;96919.94;;;4.43;100.00
55079;BME280;55187;49.496;6.010;2022-11-20T02:51:42;96924.16;;;4.44;100.00
55079;BME280;55187;49.496;6.010;2022-11-20T02:54:09;96923.22;;;4.45;100.00
55079;BME280;55187;49.496;6.010;2022-11-20T02:56:38;96924.69;;;4.47;100.00
55079;BME280;55187;49.496;6.010;2022-11-20T02:59:05;96917.78;;;4.46;100.00
55079;BME280;55187;49.496;6.010;2022-11-20T03:01:31;96925.00;;;4.44;100.00
55079;BME280;55187;49.496;6.010;2022-11-20T03:03:58;96933.84;;;4.43;100.00
55079;BME280;55187;49.496;6.010;2022-11-20T03:06:24;96925.31;;;4.41;100.00
55079;BME280;55187;49.496;6.010;2022-11-20T03:08:50;96927.13;;;4.40;100.00
55079;BME280;55187;49.496;6.010;2022-11-20T03:11:17;96922.56;;;4.43;100.00
55079;BME280;55187;49.496;6.010;2022-11-20T03:13:43;96924.50;;;4.40;100.00
55079;BME280;55187;49.496;6.010;2022-11-20T03:16:18;96925.81;;;4.45;100.00
55079;BME280;55187;49.496;6.010;2022-11-20T03:18:46;96929.91;;;4.47;100.00
55079;BME280;55187;49.496;6.010;2022-11-20T03:21:14;96921.09;;;4.40;100.00
55079;BME280;55187;49.496;6.010;2022-11-20T03:23:41;96920.91;;;4.41;100.00
55079;BME280;55187;49.496;6.010;2022-11-20T03:26:19;96914.03;;;4.40;100.00
55079;BME280;55187;49.496;6.010;2022-11-20T03:28:58;96909.59;;;4.41;100.00
55079;BME280;55187;49.496;6.010;2022-11-20T03:31:28;96910.41;;;4.41;100.00
55079;BME280;55187;49.496;6.010;2022-11-20T03:33:56;96911.72;;;4.46;100.00
55079;BME280;55187;49.496;6.010;2022-11-20T03:36:22;96907.97;;;4.40;100.00
55079;BME280;55187;49.496;6.010;2022-11-20T03:38:49;96903.72;;;4.39;100.00
55079;BME280;55187;49.496;6.010;2022-11-20T03:41:21;96903.88;;;4.46;100.00
55079;BME280;55187;49.496;6.010;2022-11-20T03:43:53;96903.38;;;4.50;100.00
55079;BME280;55187;49.496;6.010;2022-11-20T03:46:20;96905.84;;;4.52;100.00
55079;BME280;55187;49.496;6.010;2022-11-20T03:48:47;96901.25;;;4.46;100.00
55079;BME280;55187;49.496;6.010;2022-11-20T03:51:19;96902.91;;;4.47;100.00
55079;BME280;55187;49.496;6.010;2022-11-20T03:53:47;96908.63;;;4.42;100.00
55079;BME280;55187;49.496;6.010;2022-11-20T03:56:15;96909.28;;;4.44;100.00
55079;BME280;55187;49.496;6.010;2022-11-20T03:58:43;96905.53;;;4.38;100.00
55079;BME280;55187;49.496;6.010;2022-11-20T04:01:24;96900.28;;;4.38;100.00
55079;BME280;55187;49.496;6.010;2022-11-20T04:03:52;96905.03;;;4.43;100.00
55079;BME280;55187;49.496;6.010;2022-11-20T04:06:21;96903.41;;;4.42;100.00
55079;BME280;55187;49.496;6.010;2022-11-20T04:08:48;96909.44;;;4.43;100.00
55079;BME280;55187;49.496;6.010;2022-11-20T04:11:17;96903.25;;;4.35;100.00
55079;BME280;55187;49.496;6.010;2022-11-20T04:13:49;96904.38;;;4.33;100.00
55079;BME280;55187;49.496;6.010;2022-11-20T04:16:16;96900.78;;;4.34;100.00
55079;BME280;55187;49.496;6.010;2022-11-20T04:18:43;96904.72;;;4.38;100.00
55079;BME280;55187;49.496;6.010;2022-11-20T04:21:10;96908.13;;;4.38;100.00
55079;BME280;55187;49.496;6.010;2022-11-20T04:23:37;96912.06;;;4.34;100.00
55079;BME280;55187;49.496;6.010;2022-11-20T04:26:06;96910.91;;;4.37;100.00
55079;BME280;55187;49.496;6.010;2022-11-20T04:28:33;96909.13;;;4.37;100.00
55079;BME280;55187;49.496;6.010;2022-11-20T04:31:04;96907.97;;;4.32;100.00
55079;BME280;55187;49.496;6.010;2022-11-20T04:33:32;96910.09;;;4.36;100.00
55079;BME280;55187;49.496;6.010;2022-11-20T04:36:07;96913.88;;;4.34;100.00
55079;BME280;55187;49.496;6.010;2022-11-20T04:38:34;96909.28;;;4.36;100.00
55079;BME280;55187;49.496;6.010;2022-11-20T04:41:02;96906.34;;;4.31;100.00
55079;BME280;55187;49.496;6.010;2022-11-20T04:43:29;96908.78;;;4.32;100.00
55079;BME280;55187;49.496;6.010;2022-11-20T04:45:57;96905.19;;;4.25;100.00
55079;BME280;55187;49.496;6.010;2022-11-20T04:48:25;96913.88;;;4.26;100.00
55079;BME280;55187;49.496;6.010;2022-11-20T04:50:52;96911.75;;;4.29;100.00
55079;BME280;55187;49.496;6.010;2022-11-20T04:53:20;96907.97;;;4.32;100.00
55079;BME280;55187;49.496;6.010;2022-11-20T04:55:46;96906.50;;;4.29;100.00
55079;BME280;55187;49.496;6.010;2022-11-20T04:58:13;96911.09;;;4.27;100.00
55079;BME280;55187;49.496;6.010;2022-11-20T05:00:41;96910.44;;;4.25;100.00
55079;BME280;55187;49.496;6.010;2022-11-20T05:03:07;96911.44;;;4.24;100.00
55079;BME280;55187;49.496;6.010;2022-11-20T05:05:34;96916.16;;;4.29;100.00
55079;BME280;55187;49.496;6.010;2022-11-20T05:08:01;96919.78;;;4.19;100.00
55079;BME280;55187;49.496;6.010;2022-11-20T05:10:28;96917.63;;;4.15;100.00
55079;BME280;55187;49.496;6.010;2022-11-20T05:12:54;96909.94;;;4.22;100.00
55079;BME280;55187;49.496;6.010;2022-11-20T05:15:20;96909.78;;;4.23;100.00
55079;BME280;55187;49.496;6.010;2022-11-20T05:17:48;96910.28;;;4.27;100.00
55079;BME280;55187;49.496;6.010;2022-11-20T05:20:15;96921.09;;;4.24;100.00
55079;BME280;55187;49.496;6.010;2022-11-20T05:22:42;96908.16;;;4.22;100.00
55079;BME280;55187;49.496;6.010;2022-11-20T05:25:09;96920.91;;;4.25;100.00
55079;BME280;55187;49.496;6.010;2022-11-20T05:27:36;96917.47;;;4.25;100.00
55079;BME280;55187;49.496;6.010;2022-11-20T05:30:03;96911.75;;;4.21;100.00
55079;BME280;55187;49.496;6.010;2022-11-20T05:32:30;96918.28;;;4.25;100.00
55079;BME280;55187;49.496;6.010;2022-11-20T05:34:56;96922.72;;;4.16;100.00
55079;BME280;55187;49.496;6.010;2022-11-20T05:37:23;96926.31;;;4.24;100.00
55079;BME280;55187;49.496;6.010;2022-11-20T05:39:49;96924.53;;;4.24;100.00
55079;BME280;55187;49.496;6.010;2022-11-20T05:42:15;96933.19;;;4.25;100.00
55079;BME280;55187;49.496;6.010;2022-11-20T05:44:54;96931.88;;;4.20;100.00
55079;BME280;55187;49.496;6.010;2022-11-20T05:47:20;96923.19;;;4.20;100.00
55079;BME280;55187;49.496;6.010;2022-11-20T05:49:46;96924.84;;;4.21;100.00
55079;BME280;55187;49.496;6.010;2022-11-20T05:52:13;96923.84;;;4.22;100.00
55079;BME280;55187;49.496;6.010;2022-11-20T05:54:39;96916.66;;;4.24;100.00
55079;BME280;55187;49.496;6.010;2022-11-20T05:57:05;96921.25;;;4.22;100.00
55079;BME280;55187;49.496;6.010;2022-11-20T05:59:35;96917.50;;;4.16;100.00
55079;BME280;55187;49.496;6.010;2022-11-20T06:02:02;96926.47;;;4.14;100.00
55079;BME280;55187;49.496;6.010;2022-11-20T06:04:28;96927.28;;;4.06;100.00
55079;BME280;55187;49.496;6.010;2022-11-20T06:06:54;96923.38;;;4.10;100.00
55079;BME280;55187;49.496;6.010;2022-11-20T06:09:21;96914.84;;;4.00;100.00
55079;BME280;55187;49.496;6.010;2022-11-20T06:11:47;96922.88;;;3.98;100.00
55079;BME280;55187;49.496;6.010;2022-11-20T06:14:14;96911.56;;;3.90;100.00
55079;BME280;55187;49.496;6.010;2022-11-20T06:16:40;96925.75;;;3.79;100.00
55079;BME280;55187;49.496;6.010;2022-11-20T06:19:06;96924.00;;;3.88;100.00
55079;BME280;55187;49.496;6.010;2022-11-20T06:21:32;96921.22;;;3.89;100.00
55079;BME280;55187;49.496;6.010;2022-11-20T06:23:59;96923.19;;;4.04;100.00
55079;BME280;55187;49.496;6.010;2022-11-20T06:26:26;96929.25;;;4.04;100.00
55079;BME280;55187;49.496;6.010;2022-11-20T06:28:53;96925.81;;;4.04;100.00
55079;BME280;55187;49.496;6.010;2022-11-20T06:31:23;96925.66;;;4.05;100.00
55079;BME280;55187;49.496;6.010;2022-11-20T06:33:50;96924.81;;;4.05;100.00
55079;BME280;55187;49.496;6.010;2022-11-20T06:36:19;96931.22;;;4.10;100.00
55079;BME280;55187;49.496;6.010;2022-11-20T06:38:46;96929.75;;;4.08;100.00
55079;BME280;55187;49.496;6.010;2022-11-20T06:41:18;96924.19;;;4.03;100.00
55079;BME280;55187;49.496;6.010;2022-11-20T06:43:47;96929.91;;;4.06;100.00
55079;BME280;55187;49.496;6.010;2022-11-20T06:46:15;96932.03;;;4.03;100.00
55079;BME280;55187;49.496;6.010;2022-11-20T06:48:44;96931.69;;;3.97;100.00
55079;BME280;55187;49.496;6.010;2022-11-20T06:51:10;96935.78;;;4.08;100.00
55079;BME280;55187;49.496;6.010;2022-11-20T06:53:37;96934.00;;;4.09;100.00
55079;BME280;55187;49.496;6.010;2022-11-20T06:56:04;96938.41;;;4.08;100.00
55079;BME280;55187;49.496;6.010;2022-11-20T06:58:32;96947.25;;;4.07;100.00
55079;BME280;55187;49.496;6.010;2022-11-20T07:01:01;96946.41;;;4.07;100.00
55079;BME280;55187;49.496;6.010;2022-11-20T07:03:28;96955.94;;;4.08;100.00
55079;BME280;55187;49.496;6.010;2022-11-20T07:05:55;96958.22;;;4.11;100.00
55079;BME280;55187;49.496;6.010;2022-11-20T07:08:22;96957.41;;;4.10;100.00
55079;BME280;55187;49.496;6.010;2022-11-20T07:10:49;96962.97;;;4.15;100.00
55079;BME280;55187;49.496;6.010;2022-11-20T07:13:15;96971.97;;;4.13;100.00
55079;BME280;55187;49.496;6.010;2022-11-20T07:15:41;96968.06;;;4.17;100.00
55079;BME280;55187;49.496;6.010;2022-11-20T07:18:08;96970.19;;;4.22;100.00
55079;BME280;55187;49.496;6.010;2022-11-20T07:20:34;96967.88;;;4.27;100.00
55079;BME280;55187;49.496;6.010;2022-11-20T07:23:00;96970.34;;;4.20;100.00
55079;BME280;55187;49.496;6.010;2022-11-20T07:25:28;96976.06;;;4.32;100.00
55079;BME280;55187;49.496;6.010;2022-11-20T07:27:59;96970.34;;;4.28;100.00
55079;BME280;55187;49.496;6.010;2022-11-20T07:30:27;96976.41;;;4.29;100.00
55079;BME280;55187;49.496;6.010;2022-11-20T07:32:54;96981.00;;;4.27;100.00
55079;BME280;55187;49.496;6.010;2022-11-20T07:35:25;96975.41;;;4.30;100.00
55079;BME280;55187;49.496;6.010;2022-11-20T07:37:53;96973.59;;;4.14;100.00
55079;BME280;55187;49.496;6.010;2022-11-20T07:40:19;96984.09;;;4.22;100.00
55079;BME280;55187;49.496;6.010;2022-11-20T07:42:49;96986.69;;;4.14;100.00
55079;BME280;55187;49.496;6.010;2022-11-20T07:45:17;96982.09;;;4.16;100.00
55079;BME280;55187;49.496;6.010;2022-11-20T07:47:43;96979.66;;;4.23;100.00
55079;BME280;55187;49.496;6.010;2022-11-20T07:50:12;96988.34;;;4.15;100.00
55079;BME280;55187;49.496;6.010;2022-11-20T07:52:39;96977.84;;;4.23;100.00
55079;BME280;55187;49.496;6.010;2022-11-20T07:55:06;96995.56;;;4.29;100.00
55079;BME280;55187;49.496;6.010;2022-11-20T07:57:32;96996.38;;;4.30;100.00
55079;BME280;55187;49.496;6.010;2022-11-20T07:59:59;96994.41;;;4.24;100.00
55079;BME280;55187;49.496;6.010;2022-11-20T08:02:25;96994.91;;;4.35;100.00
55079;BME280;55187;49.496;6.010;2022-11-20T08:04:51;96998.50;;;4.34;100.00
55079;BME280;55187;49.496;6.010;2022-11-20T08:07:18;96998.19;;;4.46;100.00
55079;BME280;55187;49.496;6.010;2022-11-20T08:09:45;96999.66;;;4.48;100.00
55079;BME280;55187;49.496;6.010;2022-11-20T08:12:19;96999.66;;;4.48;100.00
55079;BME280;55187;49.496;6.010;2022-11-20T08:15:06;97005.56;;;4.26;100.00
55079;BME280;55187;49.496;6.010;2022-11-20T08:17:32;97001.44;;;4.15;100.00
55079;BME280;55187;49.496;6.010;2022-11-20T08:19:58;97015.84;;;4.27;100.00
55079;BME280;55187;49.496;6.010;2022-11-20T08:22:24;97012.59;;;4.33;100.00
55079;BME280;55187;49.496;6.010;2022-11-20T08:24:51;97010.63;;;4.35;100.00
55079;BME280;55187;49.496;6.010;2022-11-20T08:27:17;97027.81;;;4.46;100.00
55079;BME280;55187;49.496;6.010;2022-11-20T08:29:44;97014.41;;;4.41;100.00
55079;BME280;55187;49.496;6.010;2022-11-20T08:32:10;97025.03;;;4.48;100.00
55079;BME280;55187;49.496;6.010;2022-11-20T08:34:40;97022.41;;;4.97;100.00
55079;BME280;55187;49.496;6.010;2022-11-20T08:37:06;97026.69;;;4.81;100.00
55079;BME280;55187;49.496;6.010;2022-11-20T08:39:32;97016.03;;;4.83;100.00
55079;BME280;55187;49.496;6.010;2022-11-20T08:41:59;97020.28;;;5.09;100.00
55079;BME280;55187;49.496;6.010;2022-11-20T08:44:25;97016.16;;;5.22;100.00
55079;BME280;55187;49.496;6.010;2022-11-20T08:46:51;97015.81;;;5.17;100.00
55079;BME280;55187;49.496;6.010;2022-11-20T08:49:18;97016.78;;;5.33;100.00
55079;BME280;55187;49.496;6.010;2022-11-20T08:51:44;97014.56;;;4.89;100.00
55079;BME280;55187;49.496;6.010;2022-11-20T08:54:13;97021.13;;;4.93;100.00
55079;BME280;55187;49.496;6.010;2022-11-20T08:56:39;97012.44;;;4.35;100.00
55079;BME280;55187;49.496;6.010;2022-11-20T08:59:06;97015.69;;;4.37;100.00
55079;BME280;55187;49.496;6.010;2022-11-20T09:01:32;97018.19;;;4.47;100.00
55079;BME280;55187;49.496;6.010;2022-11-20T09:03:58;97019.13;;;4.29;100.00
55079;BME280;55187;49.496;6.010;2022-11-20T09:06:25;97013.56;;;4.40;100.00
55079;BME280;55187;49.496;6.010;2022-11-20T09:08:53;97027.03;;;4.87;100.00
55079;BME280;55187;49.496;6.010;2022-11-20T09:11:19;97021.25;;;5.08;100.00
55079;BME280;55187;49.496;6.010;2022-11-20T09:13:46;97021.91;;;5.10;100.00
55079;BME280;55187;49.496;6.010;2022-11-20T09:16:12;97018.16;;;4.96;100.00
55079;BME280;55187;49.496;6.010;2022-11-20T09:18:38;97020.75;;;5.12;100.00
55079;BME280;55187;49.496;6.010;2022-11-20T09:21:10;97019.63;;;4.98;100.00
55079;BME280;55187;49.496;6.010;2022-11-20T09:23:37;97032.22;;;5.28;100.00
55079;BME280;55187;49.496;6.010;2022-11-20T09:26:06;97027.53;;;5.62;100.00
55079;BME280;55187;49.496;6.010;2022-11-20T09:28:33;97031.56;;;5.81;100.00
55079;BME280;55187;49.496;6.010;2022-11-20T09:30:59;97026.34;;;5.01;100.00
55079;BME280;55187;49.496;6.010;2022-11-20T09:33:26;97019.97;;;4.95;100.00
55079;BME280;55187;49.496;6.010;2022-11-20T09:35:54;97019.31;;;4.85;100.00
55079;BME280;55187;49.496;6.010;2022-11-20T09:38:20;97022.72;;;5.10;100.00
55079;BME280;55187;49.496;6.010;2022-11-20T09:40:54;97023.69;;;5.25;100.00
55079;BME280;55187;49.496;6.010;2022-11-20T09:43:49;97012.81;;;5.45;100.00
55079;BME280;55187;49.496;6.010;2022-11-20T09:49:23;97030.41;;;5.36;100.00
55079;BME280;55187;49.496;6.010;2022-11-20T09:51:57;97026.56;;;5.55;100.00
55079;BME280;55187;49.496;6.010;2022-11-20T09:54:29;97021.78;;;5.67;100.00
55079;BME280;55187;49.496;6.010;2022-11-20T09:56:59;97026.53;;;5.63;100.00
55079;BME280;55187;49.496;6.010;2022-11-20T10:02:28;97013.38;;;5.72;100.00
55079;BME280;55187;49.496;6.010;2022-11-20T10:05:06;97009.16;;;5.62;100.00
55079;BME280;55187;49.496;6.010;2022-11-20T10:10:43;96996.38;;;5.99;100.00
55079;BME280;55187;49.496;6.010;2022-11-20T10:16:13;97006.66;;;6.08;100.00
55079;BME280;55187;49.496;6.010;2022-11-20T10:18:57;97007.41;;;5.86;100.00
55079;BME280;55187;49.496;6.010;2022-11-20T10:27:33;97003.09;;;5.62;100.00
55079;BME280;55187;49.496;6.010;2022-11-20T10:30:09;96990.53;;;5.80;100.00
55079;BME280;55187;49.496;6.010;2022-11-20T10:32:46;96979.66;;;5.92;100.00
55079;BME280;55187;49.496;6.010;2022-11-20T10:35:34;96989.75;;;5.32;100.00
55079;BME280;55187;49.496;6.010;2022-11-20T10:38:07;96984.47;;;5.80;100.00
55079;BME280;55187;49.496;6.010;2022-11-20T10:40:39;96973.84;;;6.04;100.00
55079;BME280;55187;49.496;6.010;2022-11-20T10:43:17;96969.84;;;5.85;100.00
55079;BME280;55187;49.496;6.010;2022-11-20T10:45:53;96959.22;;;6.10;100.00
55079;BME280;55187;49.496;6.010;2022-11-20T10:48:27;96966.69;;;5.98;100.00
55079;BME280;55187;49.496;6.010;2022-11-20T10:56:52;96960.03;;;6.11;100.00
55079;BME280;55187;49.496;6.010;2022-11-20T11:02:35;96958.63;;;6.00;100.00
55079;BME280;55187;49.496;6.010;2022-11-20T11:07:55;96950.06;;;6.06;100.00
55079;BME280;55187;49.496;6.010;2022-11-20T11:13:23;96957.41;;;6.57;100.00
55079;BME280;55187;49.496;6.010;2022-11-20T11:15:50;96941.50;;;6.50;100.00
55079;BME280;55187;49.496;6.010;2022-11-20T11:18:30;96945.09;;;6.34;100.00
55079;BME280;55187;49.496;6.010;2022-11-20T11:21:00;96935.50;;;6.18;100.00
55079;BME280;55187;49.496;6.010;2022-11-20T11:23:34;96941.13;;;6.15;100.00
55079;BME280;55187;49.496;6.010;2022-11-20T11:26:05;96935.19;;;5.98;100.00
55079;BME280;55187;49.496;6.010;2022-11-20T11:28:33;96932.53;;;5.98;100.00
55079;BME280;55187;49.496;6.010;2022-11-20T11:30:59;96924.75;;;6.05;100.00
55079;BME280;55187;49.496;6.010;2022-11-20T11:33:28;96932.56;;;6.21;100.00
55079;BME280;55187;49.496;6.010;2022-11-20T11:35:56;96915.50;;;6.17;100.00
55079;BME280;55187;49.496;6.010;2022-11-20T11:38:30;96919.41;;;6.21;100.00
55079;BME280;55187;49.496;6.010;2022-11-20T11:40:57;96916.34;;;6.33;100.00
55079;BME280;55187;49.496;6.010;2022-11-20T11:43:26;96914.03;;;6.38;100.00
55079;BME280;55187;49.496;6.010;2022-11-20T11:46:31;96890.53;;;6.21;100.00
55079;BME280;55187;49.496;6.010;2022-11-20T11:52:00;96913.81;;;6.24;100.00
55079;BME280;55187;49.496;6.010;2022-11-20T11:54:34;96912.50;;;6.20;100.00
55079;BME280;55187;49.496;6.010;2022-11-20T11:57:20;96916.72;;;6.06;100.00
55079;BME280;55187;49.496;6.010;2022-11-20T12:00:02;96912.69;;;5.64;100.00
55079;BME280;55187;49.496;6.010;2022-11-20T12:02:36;96905.84;;;5.55;100.00
55079;BME280;55187;49.496;6.010;2022-11-20T12:05:20;96901.31;;;5.72;100.00
55079;BME280;55187;49.496;6.010;2022-11-20T12:08:05;96902.03;;;5.66;100.00
55079;BME280;55187;49.496;6.010;2022-11-20T12:13:39;96891.16;;;5.69;100.00
55079;BME280;55187;49.496;6.010;2022-11-20T12:16:13;96894.91;;;5.75;100.00
55079;BME280;55187;49.496;6.010;2022-11-20T12:18:40;96893.50;;;5.64;100.00
55079;BME280;55187;49.496;6.010;2022-11-20T12:24:27;96877.22;;;5.68;100.00
55079;BME280;55187;49.496;6.010;2022-11-20T12:30:09;96875.59;;;5.67;100.00
55079;BME280;55187;49.496;6.010;2022-11-20T12:32:58;96877.53;;;5.74;100.00
55079;BME280;55187;49.496;6.010;2022-11-20T12:35:52;96868.47;;;5.53;100.00
55079;BME280;55187;49.496;6.010;2022-11-20T12:38:45;96857.72;;;5.63;100.00
55079;BME280;55187;49.496;6.010;2022-11-20T12:41:39;96867.72;;;5.67;100.00
55079;BME280;55187;49.496;6.010;2022-11-20T12:50:28;96851.03;;;5.83;100.00
55079;BME280;55187;49.496;6.010;2022-11-20T12:59:04;96812.34;;;5.54;100.00
55079;BME280;55187;49.496;6.010;2022-11-20T13:01:46;96811.50;;;5.31;100.00
55079;BME280;55187;49.496;6.010;2022-11-20T13:07:12;96806.28;;;5.54;100.00
55079;BME280;55187;49.496;6.010;2022-11-20T13:09:45;96798.41;;;5.54;100.00
55079;BME280;55187;49.496;6.010;2022-11-20T13:12:17;96808.50;;;5.42;100.00
55079;BME280;55187;49.496;6.010;2022-11-20T13:15:06;96804.56;;;5.38;100.00
55079;BME280;55187;49.496;6.010;2022-11-20T13:17:51;96795.47;;;5.25;100.00
55079;BME280;55187;49.496;6.010;2022-11-20T13:20:19;96799.13;;;5.16;100.00
55079;BME280;55187;49.496;6.010;2022-11-20T13:22:51;96788.63;;;5.24;100.00
55079;BME280;55187;49.496;6.010;2022-11-20T13:25:26;96805.81;;;5.27;100.00
55079;BME280;55187;49.496;6.010;2022-11-20T13:27:55;96781.44;;;5.41;100.00
55079;BME280;55187;49.496;6.010;2022-11-20T13:30:25;96771.19;;;5.32;100.00
55079;BME280;55187;49.496;6.010;2022-11-20T13:32:57;96769.81;;;5.36;100.00
55079;BME280;55187;49.496;6.010;2022-11-20T13:35:34;96766.88;;;5.39;100.00
55079;BME280;55187;49.496;6.010;2022-11-20T13:38:08;96755.09;;;5.35;100.00
55079;BME280;55187;49.496;6.010;2022-11-20T13:40:54;96754.44;;;5.33;100.00
55079;BME280;55187;49.496;6.010;2022-11-20T13:43:41;96757.72;;;5.35;100.00
55079;BME280;55187;49.496;6.010;2022-11-20T13:46:09;96747.38;;;5.33;100.00
55079;BME280;55187;49.496;6.010;2022-11-20T13:48:41;96742.53;;;5.45;100.00
55079;BME280;55187;49.496;6.010;2022-11-20T13:51:28;96744.88;;;5.63;100.00
55079;BME280;55187;49.496;6.010;2022-11-20T13:54:25;96742.44;;;5.61;100.00
55079;BME280;55187;49.496;6.010;2022-11-20T13:57:08;96732.88;;;5.68;100.00
55079;BME280;55187;49.496;6.010;2022-11-20T13:59:54;96735.38;;;5.62;100.00
55079;BME280;55187;49.496;6.010;2022-11-20T14:02:26;96738.34;;;5.59;100.00
55079;BME280;55187;49.496;6.010;2022-11-20T14:04:57;96730.13;;;5.39;100.00
55079;BME280;55187;49.496;6.010;2022-11-20T14:07:35;96732.34;;;5.27;100.00
55079;BME280;55187;49.496;6.010;2022-11-20T14:10:04;96733.72;;;5.15;100.00
55079;BME280;55187;49.496;6.010;2022-11-20T14:12:32;96730.31;;;5.14;100.00
55079;BME280;55187;49.496;6.010;2022-11-20T14:14:59;96721.66;;;5.05;100.00
55079;BME280;55187;49.496;6.010;2022-11-20T14:17:32;96720.38;;;5.01;100.00
55079;BME280;55187;49.496;6.010;2022-11-20T14:20:02;96720.38;;;5.01;100.00
55079;BME280;55187;49.496;6.010;2022-11-20T14:22:30;96718.63;;;4.94;100.00